Terminal Aerodrome Forecast
Issued by NWS Norman, OK

Home | Current Version | Previous Version | Text Only | Print | Product List | Glossary On
Versions: 1 2 3 4 5 6 7 8 9 10 11 12 13 14
000
FTUS44 KOUN 220523
TAFOKC
TAF
KOKC 220523Z 2206/2306 VRB04KT P6SM SKC
     FM221600 20011KT P6SM SCT250
     FM230300 14005KT P6SM SCT250=

USA.gov is the U.S. government's official web portal to all federal, state and local government web resources and services.